Strona główna
METAR-TAF:

METAR-TAF

Lotnisko :

Dayton, Ohio, Stany Zjednoczone

Szerokość geograficzna: 39-35-20N, Długość geograficzna: 084-13-29W, wysokość: 292 m

Aktualna obserwacja pogody

Raport powstał 21 minut temu, godzina 12:53 UTC
Wiatr 11 kt od południowo-południowy wschód
Temperatura 2°C
Wilgotność 80%
Ciśnienie 1014 hPa
Widzialność: 11.3 km
Zachmurzenie całkowite na wysokości 3100 ft
słaby deszcz

METAR: KMGY 181253Z AUTO 16011KT 7SM -RA OVC031 02/M01 A2995 RMK AO2 SLP149 P0003 I1000 T00171006

czas: 08:14 (13:14 UTC)


TAF: brakujący

Obserwacja i prognoza pogody dla ponad 4000 lotnisk (raport METAR i TAF).

Dostępne stacje oznaczono żółtymi i czerwonymi punktami na mapie.

Najedź kursorem aby zobaczyć nazwę stacji.

Kliknij aby zobaczyć obserwacje i prognozy pogody.

Aby zmienić mapę: kliknij na zielony przycisk z czarnym krzyżykiem, aby powiększyć; na zielony przycisk z myślnikiem, aby pomniejszyć; na zielone strzałki, aby przejść do map sąsiednich.


METAR-TAF: